AirNav   Pilot Hours Calculator
 
 555 users online  

20NC Mountain View Airport
Sherrills Ford, North Carolina, USA

GOING TO SHERRILLS FORD?


FAA INFORMATION EFFECTIVE 03 NOVEMBER 2022

Location

FAA Identifier: 20NC
Lat/Long: 35-35-32.4820N 081-03-21.2800W
35-35.541367N 081-03.354667W
35.5923561,-81.0559111
(estimated)
Elevation: 1020 ft. / 311 m (estimated)
Variation: 05W (1990)
From city: 6 miles NW of SHERRILLS FORD, NC
Time zone: UTC -5 (UTC -4 during Daylight Saving Time)
Zip code: 28650

Airport Operations

Airport use: Private use. Permission required prior to landing
Activation date: 10/1994
Control tower: no
ARTCC: ATLANTA CENTER
FSS: RALEIGH FLIGHT SERVICE STATION
Attendance: UNATNDD
Wind indicator: yes
Segmented circle: no

Airport Communications

WX AWOS-3 at IPJ (8 nm SW): 119.675 (704-735-6954)
WX AWOS-3 at SVH (11 nm NE): 119.225 (704-873-1978)
WX ASOS at HKY (19 nm NW): 118.325 (828-322-2996)

Nearby radio navigation aids

VOR radial/distance  VOR name  Freq  Var
BZMr158/18.9BARRETTS MOUNTAIN VOR/DME113.7506W
CLTr353/24.7CHARLOTTE VOR/DME115.0005W

 
NDB name  Hdg/Dist  Freq  Var  ID
STONIA018/24.626006WGHJ --. .... .---
FIDDLERS110/30.839107WFIQ ..-. .. --.-
FIRST RIVER058/33.541706WSLP ... .-.. .--.

Airport Services

Runway Information

Runway 3/21

Dimensions: 2000 x 50 ft. / 610 x 15 m
Surface: turf
RUNWAY 3  RUNWAY 21
Traffic pattern: leftleft

Airport Ownership and Management from official FAA records

Ownership: Privately-owned
Owner: R A JEFFORDS JR
3545 MT BEULAH RD
SHERRILLS FORD, NC 28673
Phone 704-483-4330

Airport Operational Statistics

Aircraft based on the field: 3
Single engine airplanes: 3
    

Additional Remarks

FOR CD CTC CHARLOTTE APCH AT 704-359-0241.

Instrument Procedures

There are no published instrument procedures at 20NC.

Some nearby airports with instrument procedures:

14A - Lake Norman Airpark (8 nm E)
KIPJ - Lincolnton-Lincoln County Regional Airport (8 nm SW)
KSVH - Statesville Regional Airport (11 nm NE)
KHKY - Hickory Regional Airport (19 nm NW)
KJQF - Concord-Padgett Regional Airport (21 nm SE)
 
Loc | Ops | Rwys | IFR | FBO | Links
Com | Nav | Svcs | Stats | Notes
Area around 20NC (Mountain View Airport)
 
Road maps at: MapQuest Bing Google
 
Aerial photo
No photo
 
Sectional chart

 
Airport distance calculator
Flying to Mountain View Airport? Find the distance to fly.

From to 20NC

Sunrise and sunset
Times for 28-Nov-2022
 Local
(UTC-5)
 Zulu
(UTC)
Morning civil twilight06:4611:46
Sunrise07:1412:14
Sunset17:1122:11
Evening civil twilight17:3922:39

Current date and time
Zulu (UTC)  28-Nov-2022 11:16:03
Local (UTC-5)  28-Nov-2022 06:16:03
 
METAR
KIPJ 
8nm SW 
281055Z AUTO 00000KT 10SM CLR 04/03 A2981 RMK AO2 T00360034
KSVH 
11nm NE 
281055Z AUTO 00000KT 10SM CLR 07/05 A2980 RMK AO2 T00650045
KHKY 
19nm NW 
281053Z 30010KT 10SM CLR 11/05 A2981 RMK AO2 SLP080 T01110050 $
TAF
KHKY 
19nm NW 
280520Z 2806/2906 25004KT P6SM SKC FM281200 26003KT P6SM FEW250 FM281700 29005KT P6SM SCT024 FM282300 34003KT P6SM FEW250
KCLT 
23nm S 
280950Z 2810/2912 25005KT P6SM SKC FM281600 28007KT P6SM SCT028 FM290500 05003KT P6SM FEW250
NOTAMs
Click for the latest NOTAMs
NOTAMs are issued by the DoD/FAA and will open in a separate window not controlled by AirNav.

 

 
 

Would you like to see your business listed on this page?

 If your business provides an interesting product or service to pilots, flight crews, aircraft, or users of the Mountain View Airport, you should consider listing it here.  To start the listing process, click on the button below
 
Add a business
 

Other Pages about Mountain View Airport

Update a link
 
Copyright © AirNav, LLC. All rights reserved. Privacy Policy  Contact